sensor_id;sensor_type;location;lat;lon;timestamp;P1;durP1;ratioP1;P2;durP2;ratioP2
20287;SDS011;10303;51.960;8.372;2022-10-03T08:28:51;2.27;;;1.43;;
20287;SDS011;10303;51.960;8.372;2022-10-03T08:45:41;4.30;;;2.43;;
20287;SDS011;10303;51.960;8.372;2022-10-03T08:48:39;2.73;;;1.90;;
20287;SDS011;10303;51.960;8.372;2022-10-03T09:44:08;5.40;;;2.53;;
20287;SDS011;10303;51.960;8.372;2022-10-03T10:59:11;2.58;;;1.42;;
20287;SDS011;10303;51.960;8.372;2022-10-03T11:31:45;4.05;;;0.70;;
20287;SDS011;10303;51.960;8.372;2022-10-03T11:59:51;0.63;;;0.60;;
20287;SDS011;10303;51.960;8.372;2022-10-03T12:06:14;2.92;;;1.00;;
20287;SDS011;10303;51.960;8.372;2022-10-03T12:13:10;1.38;;;0.60;;
20287;SDS011;10303;51.960;8.372;2022-10-03T12:15:51;2.88;;;0.80;;
20287;SDS011;10303;51.960;8.372;2022-10-03T12:21:55;0.60;;;0.40;;
20287;SDS011;10303;51.960;8.372;2022-10-03T12:24:47;0.63;;;0.40;;
20287;SDS011;10303;51.960;8.372;2022-10-03T12:27:37;1.50;;;0.70;;
20287;SDS011;10303;51.960;8.372;2022-10-03T12:30:29;2.63;;;0.75;;
20287;SDS011;10303;51.960;8.372;2022-10-03T12:36:17;2.45;;;0.57;;
20287;SDS011;10303;51.960;8.372;2022-10-03T12:39:12;2.35;;;0.60;;
20287;SDS011;10303;51.960;8.372;2022-10-03T12:51:31;0.40;;;0.40;;
20287;SDS011;10303;51.960;8.372;2022-10-03T12:54:29;0.80;;;0.50;;
20287;SDS011;10303;51.960;8.372;2022-10-03T12:59:46;1.42;;;0.45;;
20287;SDS011;10303;51.960;8.372;2022-10-03T13:12:03;2.90;;;0.40;;
20287;SDS011;10303;51.960;8.372;2022-10-03T13:23:46;1.67;;;0.52;;
20287;SDS011;10303;51.960;8.372;2022-10-03T13:29:41;0.70;;;0.50;;
20287;SDS011;10303;51.960;8.372;2022-10-03T13:32:32;2.78;;;0.93;;
20287;SDS011;10303;51.960;8.372;2022-10-03T14:30:10;1.43;;;0.50;;
20287;SDS011;10303;51.960;8.372;2022-10-03T14:32:57;1.43;;;1.20;;
20287;SDS011;10303;51.960;8.372;2022-10-03T14:39:23;2.00;;;0.70;;
20287;SDS011;10303;51.960;8.372;2022-10-03T15:16:05;5.10;;;0.73;;
20287;SDS011;10303;51.960;8.372;2022-10-03T15:18:36;1.53;;;0.77;;
20287;SDS011;10303;51.960;8.372;2022-10-03T15:21:10;1.70;;;0.70;;
20287;SDS011;10303;51.960;8.372;2022-10-03T15:32:53;0.97;;;0.47;;
20287;SDS011;10303;51.960;8.372;2022-10-03T15:35:52;4.20;;;0.60;;
20287;SDS011;10303;51.960;8.372;2022-10-03T15:38:33;1.20;;;1.10;;
20287;SDS011;10303;51.960;8.372;2022-10-03T15:44:38;0.63;;;0.27;;
20287;SDS011;10303;51.960;8.372;2022-10-03T15:51:17;2.37;;;0.40;;
20287;SDS011;10303;51.960;8.372;2022-10-03T15:53:50;0.83;;;0.70;;
20287;SDS011;10303;51.960;8.372;2022-10-03T15:56:24;2.73;;;0.87;;
20287;SDS011;10303;51.960;8.372;2022-10-03T15:59:02;4.13;;;0.83;;
20287;SDS011;10303;51.960;8.372;2022-10-03T16:01:44;1.30;;;0.70;;
20287;SDS011;10303;51.960;8.372;2022-10-03T16:07:07;0.43;;;0.30;;
20287;SDS011;10303;51.960;8.372;2022-10-03T16:24:32;0.67;;;0.30;;
20287;SDS011;10303;51.960;8.372;2022-10-03T16:27:12;1.47;;;0.40;;
20287;SDS011;10303;51.960;8.372;2022-10-03T16:29:51;0.30;;;0.30;;
20287;SDS011;10303;51.960;8.372;2022-10-03T16:32:35;0.30;;;0.30;;
20287;SDS011;10303;51.960;8.372;2022-10-03T16:35:14;2.47;;;0.60;;
20287;SDS011;10303;51.960;8.372;2022-10-03T16:38:16;0.63;;;0.63;;
20287;SDS011;10303;51.960;8.372;2022-10-03T16:44:03;0.37;;;0.27;;
20287;SDS011;10303;51.960;8.372;2022-10-03T16:46:45;0.37;;;0.30;;
20287;SDS011;10303;51.960;8.372;2022-10-03T16:52:09;0.67;;;0.67;;
20287;SDS011;10303;51.960;8.372;2022-10-03T16:54:40;0.40;;;0.40;;
20287;SDS011;10303;51.960;8.372;2022-10-03T16:57:10;0.90;;;0.43;;
20287;SDS011;10303;51.960;8.372;2022-10-03T16:59:47;0.77;;;0.60;;
20287;SDS011;10303;51.960;8.372;2022-10-03T17:02:19;0.70;;;0.30;;
20287;SDS011;10303;51.960;8.372;2022-10-03T17:05:07;1.63;;;0.37;;
20287;SDS011;10303;51.960;8.372;2022-10-03T17:07:39;0.30;;;0.30;;
20287;SDS011;10303;51.960;8.372;2022-10-03T17:13:05;0.60;;;0.50;;
20287;SDS011;10303;51.960;8.372;2022-10-03T17:15:47;0.90;;;0.30;;
20287;SDS011;10303;51.960;8.372;2022-10-03T17:18:23;0.67;;;0.43;;
20287;SDS011;10303;51.960;8.372;2022-10-03T17:21:06;1.70;;;0.30;;
20287;SDS011;10303;51.960;8.372;2022-10-03T17:23:52;0.60;;;0.60;;
20287;SDS011;10303;51.960;8.372;2022-10-03T17:26:43;0.63;;;0.60;;
20287;SDS011;10303;51.960;8.372;2022-10-03T17:29:31;2.40;;;0.50;;
20287;SDS011;10303;51.960;8.372;2022-10-03T17:34:40;0.77;;;0.50;;
20287;SDS011;10303;51.960;8.372;2022-10-03T17:43:00;2.30;;;0.60;;
20287;SDS011;10303;51.960;8.372;2022-10-03T17:51:43;1.83;;;0.77;;
20287;SDS011;10303;51.960;8.372;2022-10-03T17:54:25;0.83;;;0.70;;
20287;SDS011;10303;51.960;8.372;2022-10-03T17:57:00;0.90;;;0.67;;
20287;SDS011;10303;51.960;8.372;2022-10-03T18:02:34;1.23;;;0.70;;
20287;SDS011;10303;51.960;8.372;2022-10-03T18:05:52;2.20;;;0.50;;
20287;SDS011;10303;51.960;8.372;2022-10-03T18:08:34;0.50;;;0.50;;
20287;SDS011;10303;51.960;8.372;2022-10-03T18:11:04;0.50;;;0.40;;
20287;SDS011;10303;51.960;8.372;2022-10-03T18:28:22;1.10;;;0.70;;
20287;SDS011;10303;51.960;8.372;2022-10-03T18:36:18;0.60;;;0.60;;
20287;SDS011;10303;51.960;8.372;2022-10-03T18:39:22;0.50;;;0.50;;
20287;SDS011;10303;51.960;8.372;2022-10-03T18:41:54;0.70;;;0.70;;
20287;SDS011;10303;51.960;8.372;2022-10-03T18:44:44;1.17;;;0.70;;
20287;SDS011;10303;51.960;8.372;2022-10-03T18:47:28;0.97;;;0.40;;
20287;SDS011;10303;51.960;8.372;2022-10-03T18:50:17;1.07;;;0.40;;
20287;SDS011;10303;51.960;8.372;2022-10-03T18:53:18;1.63;;;1.07;;
20287;SDS011;10303;51.960;8.372;2022-10-03T18:56:17;0.60;;;0.50;;
20287;SDS011;10303;51.960;8.372;2022-10-03T19:01:53;2.20;;;0.90;;
20287;SDS011;10303;51.960;8.372;2022-10-03T19:04:39;2.50;;;1.10;;
20287;SDS011;10303;51.960;8.372;2022-10-03T19:12:45;1.10;;;1.00;;
20287;SDS011;10303;51.960;8.372;2022-10-03T19:18:18;1.20;;;0.97;;
20287;SDS011;10303;51.960;8.372;2022-10-03T19:20:59;1.00;;;0.90;;
20287;SDS011;10303;51.960;8.372;2022-10-03T19:23:40;0.87;;;0.83;;
20287;SDS011;10303;51.960;8.372;2022-10-03T19:26:17;0.90;;;0.90;;
20287;SDS011;10303;51.960;8.372;2022-10-03T19:29:06;1.40;;;1.10;;
20287;SDS011;10303;51.960;8.372;2022-10-03T19:31:51;1.47;;;0.93;;
20287;SDS011;10303;51.960;8.372;2022-10-03T19:34:42;1.03;;;0.70;;
20287;SDS011;10303;51.960;8.372;2022-10-03T19:46:11;1.73;;;1.10;;
20287;SDS011;10303;51.960;8.372;2022-10-03T19:49:14;1.43;;;1.00;;
20287;SDS011;10303;51.960;8.372;2022-10-03T19:51:44;1.80;;;0.77;;
20287;SDS011;10303;51.960;8.372;2022-10-03T19:54:26;1.70;;;1.03;;
20287;SDS011;10303;51.960;8.372;2022-10-03T19:57:00;0.80;;;0.80;;
20287;SDS011;10303;51.960;8.372;2022-10-03T19:59:36;2.53;;;0.83;;
20287;SDS011;10303;51.960;8.372;2022-10-03T20:02:12;1.60;;;1.07;;
20287;SDS011;10303;51.960;8.372;2022-10-03T20:04:38;1.10;;;1.00;;
20287;SDS011;10303;51.960;8.372;2022-10-03T20:07:14;1.00;;;0.70;;
20287;SDS011;10303;51.960;8.372;2022-10-03T20:10:46;0.90;;;0.90;;
20287;SDS011;10303;51.960;8.372;2022-10-03T20:14:01;0.70;;;0.70;;
20287;SDS011;10303;51.960;8.372;2022-10-03T20:16:33;0.80;;;0.70;;
20287;SDS011;10303;51.960;8.372;2022-10-03T20:19:55;2.60;;;0.80;;
20287;SDS011;10303;51.960;8.372;2022-10-03T20:22:14;1.27;;;0.97;;
20287;SDS011;10303;51.960;8.372;2022-10-03T20:24:42;0.97;;;0.93;;
20287;SDS011;10303;51.960;8.372;2022-10-03T20:27:18;1.53;;;1.33;;
20287;SDS011;10303;51.960;8.372;2022-10-03T20:30:23;1.30;;;1.20;;
20287;SDS011;10303;51.960;8.372;2022-10-03T20:33:07;1.50;;;1.03;;
20287;SDS011;10303;51.960;8.372;2022-10-03T20:35:58;2.40;;;0.80;;
20287;SDS011;10303;51.960;8.372;2022-10-03T20:46:47;1.40;;;1.33;;
20287;SDS011;10303;51.960;8.372;2022-10-03T20:52:03;1.40;;;1.30;;
20287;SDS011;10303;51.960;8.372;2022-10-03T20:54:33;1.60;;;1.37;;
20287;SDS011;10303;51.960;8.372;2022-10-03T20:57:21;1.50;;;1.37;;
20287;SDS011;10303;51.960;8.372;2022-10-03T21:00:36;1.50;;;1.40;;
20287;SDS011;10303;51.960;8.372;2022-10-03T21:02:58;1.97;;;1.10;;
20287;SDS011;10303;51.960;8.372;2022-10-03T21:05:56;2.90;;;1.60;;
20287;SDS011;10303;51.960;8.372;2022-10-03T21:08:28;1.40;;;1.10;;
20287;SDS011;10303;51.960;8.372;2022-10-03T21:11:03;0.90;;;0.90;;
20287;SDS011;10303;51.960;8.372;2022-10-03T21:13:47;2.30;;;1.33;;
20287;SDS011;10303;51.960;8.372;2022-10-03T21:16:25;1.23;;;1.10;;
20287;SDS011;10303;51.960;8.372;2022-10-03T21:19:12;1.10;;;1.00;;
20287;SDS011;10303;51.960;8.372;2022-10-03T21:21:49;1.00;;;0.90;;
20287;SDS011;10303;51.960;8.372;2022-10-03T21:24:23;2.23;;;1.57;;
20287;SDS011;10303;51.960;8.372;2022-10-03T21:27:12;2.03;;;1.20;;
